Time;durP1;ratioP1;P1;durP2;ratioP2;P2;SDS_P1;SDS_P2;PMS_P1;PMS_P2;Temp;Humidity;BMP_temperature;BMP_pressure;BME280_temperature;BME280_humidity;BME280_pressure;Samples;Min_cycle;Max_cycle;Signal;HPM_P1;HPM_P2
2022/05/05 00:01:34;;;;;;;13.05;5.95;;;;;;;;;;5036983;28;20053;-74
2022/05/05 00:04:00;;;;;;;10.55;5.03;;;;;;;;;;5016801;28;20481;-75
2022/05/05 00:06:27;;;;;;;11.02;4.57;;;;;;;;;;5025052;28;20540;-74
2022/05/05 00:08:53;;;;;;;13.27;4.90;;;;;;;;;;5031370;28;20084;-74
2022/05/05 00:16:48;;;;;;;11.57;4.68;;;;;;;;;;5032364;28;20052;-74
2022/05/05 00:19:15;;;;;;;11.50;4.28;;;;;;;;;;5042977;28;20117;-74
2022/05/05 00:21:41;;;;;;;9.50;4.32;;;;;;;;;;5029563;28;20029;-73
2022/05/05 00:24:07;;;;;;;16.42;4.53;;;;;;;;;;5024728;28;20092;-74
2022/05/05 00:26:33;;;;;;;10.63;4.47;;;;;;;;;;5030188;28;20458;-74
2022/05/05 00:28:59;;;;;;;12.30;4.68;;;;;;;;;;5025826;28;20052;-74
2022/05/05 00:31:26;;;;;;;9.93;4.50;;;;;;;;;;5023340;28;20041;-74
2022/05/05 00:33:52;;;;;;;14.35;5.03;;;;;;;;;;5032848;28;20489;-73
2022/05/05 00:36:18;;;;;;;7.10;4.63;;;;;;;;;;5046309;28;20067;-73
2022/05/05 00:38:44;;;;;;;13.60;5.13;;;;;;;;;;5038196;28;20504;-73
2022/05/05 00:41:10;;;;;;;13.57;4.70;;;;;;;;;;5029690;28;20033;-73
2022/05/05 00:43:36;;;;;;;12.85;4.97;;;;;;;;;;5024098;28;20029;-73
2022/05/05 00:46:03;;;;;;;10.77;5.30;;;;;;;;;;5034094;28;20037;-74
2022/05/05 00:48:29;;;;;;;12.50;4.95;;;;;;;;;;5027490;28;20135;-75
2022/05/05 00:50:56;;;;;;;10.98;5.22;;;;;;;;;;5035395;28;20478;-74
2022/05/05 00:53:22;;;;;;;12.80;5.30;;;;;;;;;;4996400;28;22118;-76
2022/05/05 00:55:49;;;;;;;12.35;4.57;;;;;;;;;;5025040;28;20053;-73
2022/05/05 00:58:15;;;;;;;21.33;4.75;;;;;;;;;;5030448;28;20045;-74
2022/05/05 01:00:42;;;;;;;13.90;5.75;;;;;;;;;;5033765;28;20473;-74
2022/05/05 01:03:10;;;;;;;10.35;4.68;;;;;;;;;;5021099;28;20034;-75
2022/05/05 01:05:38;;;;;;;11.27;4.80;;;;;;;;;;5018485;28;20049;-74
2022/05/05 01:08:04;;;;;;;9.23;4.93;;;;;;;;;;5029237;28;20116;-74
2022/05/05 01:10:30;;;;;;;11.18;4.65;;;;;;;;;;5045084;28;20045;-75
2022/05/05 01:12:57;;;;;;;13.75;5.38;;;;;;;;;;5031431;28;20025;-74
2022/05/05 01:15:23;;;;;;;15.95;5.03;;;;;;;;;;5007482;28;20056;-74
2022/05/05 01:17:49;;;;;;;12.27;4.78;;;;;;;;;;5026453;28;20037;-75
2022/05/05 01:20:16;;;;;;;13.32;4.95;;;;;;;;;;5027295;28;20113;-74
2022/05/05 01:22:43;;;;;;;9.20;4.93;;;;;;;;;;5015771;28;20024;-74
2022/05/05 01:28:12;;;;;;;16.05;5.13;;;;;;;;;;5019441;28;20108;-74
2022/05/05 01:30:41;;;;;;;14.10;4.63;;;;;;;;;;5033973;28;20021;-74
2022/05/05 01:33:27;;;;;;;13.15;5.00;;;;;;;;;;5027071;28;20480;-74
2022/05/05 01:35:56;;;;;;;16.38;5.13;;;;;;;;;;5030888;28;20034;-74
2022/05/05 01:38:23;;;;;;;15.40;5.70;;;;;;;;;;5025378;28;20116;-74
2022/05/05 01:40:50;;;;;;;12.25;4.65;;;;;;;;;;5025597;28;20387;-74
2022/05/05 01:43:17;;;;;;;14.00;5.65;;;;;;;;;;5011105;28;20018;-74
2022/05/05 01:45:43;;;;;;;15.05;5.25;;;;;;;;;;5030701;28;20056;-74
2022/05/05 01:48:10;;;;;;;12.40;5.20;;;;;;;;;;5018194;28;20362;-74
2022/05/05 01:50:36;;;;;;;10.05;4.35;;;;;;;;;;5024073;28;20438;-74
2022/05/05 01:53:03;;;;;;;14.07;4.28;;;;;;;;;;5009756;28;20037;-74
2022/05/05 01:55:33;;;;;;;9.85;4.97;;;;;;;;;;5033272;28;20159;-73
2022/05/05 01:58:00;;;;;;;11.57;5.30;;;;;;;;;;5014936;28;20026;-73
2022/05/05 02:00:26;;;;;;;9.57;4.82;;;;;;;;;;5031132;28;20044;-74
2022/05/05 02:02:52;;;;;;;11.77;4.68;;;;;;;;;;5046985;28;20032;-74
2022/05/05 02:05:19;;;;;;;12.63;4.85;;;;;;;;;;5030844;28;20136;-74
2022/05/05 02:07:45;;;;;;;12.70;6.05;;;;;;;;;;5034062;28;20061;-74
2022/05/05 02:10:14;;;;;;;9.35;4.55;;;;;;;;;;5037330;28;20073;-74
2022/05/05 02:12:41;;;;;;;15.55;4.93;;;;;;;;;;5036078;28;20465;-74
2022/05/05 02:15:08;;;;;;;9.70;4.95;;;;;;;;;;5021317;28;20371;-73
2022/05/05 02:17:34;;;;;;;13.20;4.82;;;;;;;;;;5037482;28;20030;-73
2022/05/05 02:20:01;;;;;;;10.90;5.25;;;;;;;;;;5019259;28;20037;-74
2022/05/05 02:22:27;;;;;;;14.00;6.35;;;;;;;;;;5041080;28;20415;-74
2022/05/05 02:24:53;;;;;;;16.20;5.20;;;;;;;;;;5023855;28;20042;-75
2022/05/05 02:27:19;;;;;;;8.70;4.68;;;;;;;;;;5030308;28;20033;-75
2022/05/05 02:29:49;;;;;;;14.95;5.45;;;;;;;;;;5038202;28;20029;-73
2022/05/05 02:32:16;;;;;;;14.88;5.05;;;;;;;;;;5013466;28;20034;-74
2022/05/05 02:34:42;;;;;;;14.85;5.13;;;;;;;;;;5014075;28;20042;-74
2022/05/05 02:39:53;;;;;;;11.13;6.32;;;;;;;;;;5023173;28;20092;-74
2022/05/05 02:42:22;;;;;;;9.93;4.13;;;;;;;;;;5016501;28;20099;-74
2022/05/05 02:44:49;;;;;;;14.40;5.53;;;;;;;;;;5008536;28;20062;-74
2022/05/05 02:47:15;;;;;;;10.60;4.50;;;;;;;;;;5030524;28;20041;-74
2022/05/05 02:49:41;;;;;;;16.35;5.40;;;;;;;;;;5013813;28;20033;-74
2022/05/05 02:52:07;;;;;;;15.27;5.15;;;;;;;;;;5041375;28;20064;-75
2022/05/05 02:54:53;;;;;;;12.50;5.47;;;;;;;;;;5020850;28;20026;-74
2022/05/05 02:57:20;;;;;;;12.27;6.10;;;;;;;;;;5030583;28;20030;-74
2022/05/05 02:59:47;;;;;;;13.18;4.97;;;;;;;;;;5033211;28;20061;-74
2022/05/05 03:02:13;;;;;;;11.13;5.15;;;;;;;;;;5026885;28;20072;-74
2022/05/05 03:04:39;;;;;;;11.70;5.07;;;;;;;;;;5027946;28;20116;-74
2022/05/05 03:07:05;;;;;;;11.13;5.05;;;;;;;;;;5030806;28;20104;-74
2022/05/05 03:09:32;;;;;;;11.05;5.32;;;;;;;;;;5031859;28;20076;-74
2022/05/05 03:11:58;;;;;;;13.25;5.90;;;;;;;;;;5036814;28;20033;-74
2022/05/05 03:14:24;;;;;;;12.55;5.30;;;;;;;;;;5023724;28;20034;-73
2022/05/05 03:16:50;;;;;;;13.73;5.93;;;;;;;;;;5022247;28;20397;-74
2022/05/05 03:19:16;;;;;;;19.23;5.85;;;;;;;;;;5032486;28;20033;-74
2022/05/05 03:21:42;;;;;;;12.30;5.45;;;;;;;;;;5028638;28;20040;-77
2022/05/05 03:24:08;;;;;;;12.07;6.25;;;;;;;;;;5048750;28;20041;-73
2022/05/05 03:26:34;;;;;;;21.30;12.45;;;;;;;;;;5031039;28;20092;-72
2022/05/05 03:29:01;;;;;;;13.77;5.13;;;;;;;;;;5035167;28;20036;-73
2022/05/05 03:31:27;;;;;;;23.20;11.55;;;;;;;;;;5034078;28;20496;-76
2022/05/05 03:33:53;;;;;;;13.63;5.90;;;;;;;;;;5049554;28;20091;-74
2022/05/05 03:36:19;;;;;;;11.23;5.97;;;;;;;;;;5044203;28;20501;-75
2022/05/05 03:38:45;;;;;;;10.73;5.57;;;;;;;;;;5023052;28;20030;-74
2022/05/05 03:41:11;;;;;;;11.90;5.65;;;;;;;;;;5028023;28;20033;-76
2022/05/05 03:43:37;;;;;;;12.82;6.28;;;;;;;;;;5042733;28;20036;-74
2022/05/05 03:46:04;;;;;;;9.77;5.78;;;;;;;;;;5031942;28;20034;-74
2022/05/05 03:48:32;;;;;;;11.65;5.88;;;;;;;;;;5040647;28;20037;-76
2022/05/05 03:50:58;;;;;;;16.42;7.40;;;;;;;;;;5016343;28;20026;-74
2022/05/05 03:53:24;;;;;;;12.85;6.75;;;;;;;;;;5028952;28;20025;-74
2022/05/05 03:55:50;;;;;;;12.38;6.55;;;;;;;;;;5029638;28;20029;-74
2022/05/05 03:58:16;;;;;;;13.75;7.25;;;;;;;;;;5029925;28;20033;-74
2022/05/05 04:00:43;;;;;;;10.65;6.53;;;;;;;;;;5031654;28;20029;-74
2022/05/05 04:05:54;;;;;;;13.57;5.97;;;;;;;;;;5029645;28;20100;-74
2022/05/05 04:08:20;;;;;;;15.38;6.15;;;;;;;;;;5019939;28;20057;-74
2022/05/05 04:10:46;;;;;;;12.10;6.10;;;;;;;;;;5018775;28;20093;-74
2022/05/05 04:13:13;;;;;;;8.75;5.57;;;;;;;;;;5033974;28;20025;-75
2022/05/05 04:15:39;;;;;;;11.82;5.20;;;;;;;;;;5022013;28;20034;-73
2022/05/05 04:18:06;;;;;;;13.13;6.18;;;;;;;;;;5029649;28;20044;-74
2022/05/05 04:20:32;;;;;;;13.55;5.97;;;;;;;;;;5023066;28;20029;-74
2022/05/05 04:22:58;;;;;;;10.45;6.40;;;;;;;;;;5024840;28;20578;-74
2022/05/05 04:25:24;;;;;;;16.13;5.72;;;;;;;;;;5046722;28;20025;-74
2022/05/05 04:27:51;;;;;;;14.70;5.88;;;;;;;;;;5001834;28;20123;-76
2022/05/05 04:30:17;;;;;;;11.40;5.90;;;;;;;;;;4996264;28;20042;-74
2022/05/05 04:32:44;;;;;;;13.43;6.50;;;;;;;;;;5033163;28;20104;-74
2022/05/05 04:35:13;;;;;;;13.93;6.57;;;;;;;;;;5040716;28;20544;-74
2022/05/05 04:37:39;;;;;;;13.48;6.65;;;;;;;;;;5017789;28;20026;-74
2022/05/05 04:40:06;;;;;;;14.00;7.43;;;;;;;;;;5045104;28;20032;-74
2022/05/05 04:42:32;;;;;;;14.93;6.78;;;;;;;;;;5031308;28;20025;-74
2022/05/05 04:44:58;;;;;;;15.80;6.65;;;;;;;;;;5023296;28;20383;-74
2022/05/05 04:47:24;;;;;;;13.68;6.97;;;;;;;;;;5033627;28;20489;-74
2022/05/05 04:49:51;;;;;;;13.45;6.50;;;;;;;;;;5020528;28;20032;-74
2022/05/05 04:52:17;;;;;;;14.95;6.30;;;;;;;;;;5030740;28;20088;-75
2022/05/05 04:54:43;;;;;;;22.27;8.05;;;;;;;;;;5018061;28;20113;-74
2022/05/05 04:57:09;;;;;;;13.20;7.85;;;;;;;;;;5032638;28;20124;-74
2022/05/05 04:59:35;;;;;;;14.90;6.65;;;;;;;;;;5035371;28;20057;-74
2022/05/05 05:02:02;;;;;;;13.95;6.55;;;;;;;;;;5023077;28;20026;-73
2022/05/05 05:04:28;;;;;;;23.15;7.60;;;;;;;;;;5037428;28;20086;-72
2022/05/05 05:06:55;;;;;;;12.13;6.45;;;;;;;;;;5032115;28;20053;-71
2022/05/05 05:09:21;;;;;;;17.90;7.07;;;;;;;;;;5012995;28;20024;-72
2022/05/05 05:11:47;;;;;;;13.30;6.30;;;;;;;;;;5030073;28;20388;-72
2022/05/05 05:14:13;;;;;;;15.25;6.90;;;;;;;;;;5007798;28;20493;-71
2022/05/05 05:16:39;;;;;;;14.50;7.18;;;;;;;;;;5043976;28;20041;-72
2022/05/05 05:19:05;;;;;;;15.82;6.18;;;;;;;;;;5026814;28;20030;-71
2022/05/05 05:21:31;;;;;;;31.77;21.98;;;;;;;;;;5007107;28;20469;-74
2022/05/05 05:23:59;;;;;;;15.90;7.75;;;;;;;;;;5023584;28;20389;-72
2022/05/05 05:26:25;;;;;;;19.83;8.48;;;;;;;;;;5017007;28;20393;-76
2022/05/05 05:28:51;;;;;;;13.25;6.95;;;;;;;;;;5029867;28;20065;-74
2022/05/05 05:31:17;;;;;;;14.70;7.90;;;;;;;;;;5034864;28;20025;-72
2022/05/05 05:33:43;;;;;;;25.65;7.57;;;;;;;;;;5024428;28;20034;-74
2022/05/05 05:36:09;;;;;;;17.08;7.75;;;;;;;;;;5013243;28;20054;-73
2022/05/05 05:38:36;;;;;;;15.82;7.72;;;;;;;;;;5043459;28;20038;-72
2022/05/05 05:41:02;;;;;;;13.05;8.27;;;;;;;;;;5039090;28;20477;-73
2022/05/05 05:43:28;;;;;;;20.92;8.55;;;;;;;;;;5016272;28;20112;-74
2022/05/05 05:45:54;;;;;;;18.92;8.65;;;;;;;;;;5044279;28;20053;-74
2022/05/05 05:48:20;;;;;;;18.55;9.13;;;;;;;;;;5030350;28;20068;-74
2022/05/05 05:50:46;;;;;;;15.98;8.40;;;;;;;;;;5043565;28;20025;-73
2022/05/05 05:53:12;;;;;;;17.38;8.35;;;;;;;;;;4999211;28;20045;-74
2022/05/05 05:55:38;;;;;;;17.95;9.23;;;;;;;;;;5037661;28;20037;-73
2022/05/05 05:58:04;;;;;;;16.55;7.90;;;;;;;;;;5038062;28;20042;-74
2022/05/05 06:00:32;;;;;;;15.02;8.75;;;;;;;;;;5031592;28;20089;-74
2022/05/05 06:05:45;;;;;;;13.32;7.60;;;;;;;;;;5027911;28;20445;-74
2022/05/05 06:08:11;;;;;;;15.60;8.43;;;;;;;;;;5032805;28;20045;-75
2022/05/05 06:10:37;;;;;;;17.50;8.48;;;;;;;;;;5020474;28;20033;-74
2022/05/05 06:13:03;;;;;;;15.73;8.40;;;;;;;;;;5009323;28;20114;-74
2022/05/05 06:15:30;;;;;;;13.50;8.10;;;;;;;;;;5023882;28;20104;-74
2022/05/05 06:17:56;;;;;;;17.75;8.40;;;;;;;;;;5024518;28;20109;-74
2022/05/05 06:20:22;;;;;;;23.45;8.95;;;;;;;;;;5022253;28;20113;-73
2022/05/05 06:22:52;;;;;;;14.00;7.72;;;;;;;;;;5025718;28;20140;-74
2022/05/05 06:25:20;;;;;;;16.15;10.25;;;;;;;;;;5017073;28;20037;-74
2022/05/05 06:27:46;;;;;;;15.00;7.88;;;;;;;;;;5029125;28;20041;-74
2022/05/05 06:30:13;;;;;;;14.80;8.90;;;;;;;;;;5034687;28;20029;-74
2022/05/05 06:32:42;;;;;;;13.77;7.80;;;;;;;;;;5029741;28;20069;-74
2022/05/05 06:35:10;;;;;;;22.83;10.68;;;;;;;;;;5023867;28;20199;-73
2022/05/05 06:37:36;;;;;;;62.42;42.03;;;;;;;;;;5020663;28;20108;-73
2022/05/05 06:40:03;;;;;;;13.40;9.35;;;;;;;;;;5032038;28;20037;-72
2022/05/05 06:42:29;;;;;;;14.35;8.48;;;;;;;;;;5032066;28;20477;-73
2022/05/05 06:44:55;;;;;;;17.60;8.60;;;;;;;;;;5034000;28;20053;-73
2022/05/05 06:47:21;;;;;;;14.52;8.43;;;;;;;;;;5046836;28;20029;-73
2022/05/05 06:49:47;;;;;;;13.38;7.78;;;;;;;;;;5025423;28;20120;-74
2022/05/05 06:52:14;;;;;;;18.75;8.73;;;;;;;;;;5035812;28;20543;-74
2022/05/05 06:54:40;;;;;;;12.55;7.15;;;;;;;;;;5033357;28;20033;-74
2022/05/05 06:57:06;;;;;;;23.10;8.45;;;;;;;;;;5029814;28;20113;-75
2022/05/05 06:59:32;;;;;;;11.38;7.75;;;;;;;;;;5035086;28;20041;-74
2022/05/05 07:02:02;;;;;;;17.17;8.00;;;;;;;;;;5037535;28;20036;-74
2022/05/05 07:07:14;;;;;;;13.88;7.50;;;;;;;;;;5040751;28;20487;-74
2022/05/05 07:12:26;;;;;;;18.02;6.95;;;;;;;;;;5011052;28;20145;-75
2022/05/05 07:14:52;;;;;;;24.92;7.88;;;;;;;;;;5015062;28;20068;-75
2022/05/05 07:17:18;;;;;;;16.55;6.47;;;;;;;;;;5037329;28;20025;-75
2022/05/05 07:19:45;;;;;;;63.55;35.60;;;;;;;;;;5040818;28;20489;-72
2022/05/05 07:22:11;;;;;;;24.95;14.20;;;;;;;;;;5039593;28;20068;-72
2022/05/05 07:24:37;;;;;;;14.38;6.20;;;;;;;;;;5027591;28;20029;-77
2022/05/05 07:27:05;;;;;;;17.35;6.53;;;;;;;;;;5051670;28;20456;-74
2022/05/05 07:29:31;;;;;;;17.40;6.45;;;;;;;;;;5028159;28;20496;-76
2022/05/05 07:31:57;;;;;;;13.77;6.20;;;;;;;;;;5043264;28;20392;-72
2022/05/05 07:34:24;;;;;;;11.43;5.70;;;;;;;;;;5032711;28;20041;-73
2022/05/05 07:36:50;;;;;;;13.90;5.97;;;;;;;;;;5031498;28;20029;-73
2022/05/05 07:39:16;;;;;;;15.98;5.93;;;;;;;;;;5029223;28;20025;-73
2022/05/05 07:41:42;;;;;;;14.77;5.57;;;;;;;;;;5020732;28;20037;-73
2022/05/05 07:44:10;;;;;;;15.95;6.03;;;;;;;;;;5030439;28;20029;-73
2022/05/05 07:46:36;;;;;;;8.95;5.60;;;;;;;;;;5037060;28;20037;-73
2022/05/05 07:49:04;;;;;;;11.25;4.97;;;;;;;;;;5025117;28;20099;-73
2022/05/05 07:51:30;;;;;;;18.60;5.97;;;;;;;;;;5031962;28;20017;-73
2022/05/05 07:56:42;;;;;;;14.25;6.18;;;;;;;;;;5023644;28;20052;-73
2022/05/05 07:59:08;;;;;;;11.73;5.82;;;;;;;;;;5028253;28;20061;-73
2022/05/05 08:01:34;;;;;;;12.15;6.40;;;;;;;;;;5043750;28;20473;-73
2022/05/05 08:04:00;;;;;;;17.38;5.95;;;;;;;;;;5004482;28;20536;-73
2022/05/05 08:06:26;;;;;;;14.50;5.07;;;;;;;;;;5014633;28;20038;-73
2022/05/05 08:08:52;;;;;;;18.08;5.38;;;;;;;;;;5029580;28;20034;-74
2022/05/05 08:11:19;;;;;;;12.35;5.00;;;;;;;;;;5032042;28;20041;-73
2022/05/05 08:13:45;;;;;;;11.07;4.65;;;;;;;;;;5009474;28;20025;-74
2022/05/05 08:16:11;;;;;;;11.52;4.68;;;;;;;;;;5024571;28;20091;-74
2022/05/05 08:18:38;;;;;;;11.98;4.13;;;;;;;;;;5003567;28;20033;-74
2022/05/05 08:21:11;;;;;;;11.75;4.32;;;;;;;;;;5022530;28;20025;-74
2022/05/05 08:23:37;;;;;;;;;;;;;;;;;;5032352;28;20038;-74
2022/05/05 08:28:47;;;;;;;11.80;4.97;;;;;;;;;;5024731;28;20040;-74
2022/05/05 08:31:14;;;;;;;15.32;5.10;;;;;;;;;;5039413;28;20025;-74
2022/05/05 08:33:40;;;;;;;9.75;4.22;;;;;;;;;;5042101;28;20025;-73
2022/05/05 08:36:06;;;;;;;9.68;3.70;;;;;;;;;;5027932;28;20037;-74
2022/05/05 08:38:33;;;;;;;11.00;3.30;;;;;;;;;;5012152;28;20053;-73
2022/05/05 08:40:59;;;;;;;10.75;4.03;;;;;;;;;;5009259;28;20040;-74
2022/05/05 08:43:25;;;;;;;11.60;4.07;;;;;;;;;;5030434;28;20025;-74
2022/05/05 08:45:54;;;;;;;13.13;4.22;;;;;;;;;;5037961;28;20048;-73
2022/05/05 08:48:21;;;;;;;11.60;3.65;;;;;;;;;;5020949;28;20025;-74
2022/05/05 08:50:52;;;;;;;9.90;3.20;;;;;;;;;;5016843;28;20042;-74
2022/05/05 08:53:19;;;;;;;9.98;4.00;;;;;;;;;;5002317;28;20381;-74
2022/05/05 08:55:46;;;;;;;8.20;3.40;;;;;;;;;;5031202;28;20449;-74
2022/05/05 08:58:12;;;;;;;9.70;3.00;;;;;;;;;;5012082;28;20036;-74
2022/05/05 09:00:38;;;;;;;7.88;3.10;;;;;;;;;;5024832;28;20018;-75
2022/05/05 09:03:08;;;;;;;8.38;2.47;;;;;;;;;;5013368;28;20066;-74
2022/05/05 09:05:43;;;;;;;9.48;2.97;;;;;;;;;;5030023;28;20112;-74
2022/05/05 09:08:13;;;;;;;12.80;3.10;;;;;;;;;;5035912;28;20465;-75
2022/05/05 09:10:43;;;;;;;6.60;3.60;;;;;;;;;;5028942;28;20119;-74
2022/05/05 09:13:09;;;;;;;8.77;3.83;;;;;;;;;;5015988;28;20025;-74
2022/05/05 09:15:36;;;;;;;16.30;4.35;;;;;;;;;;5039696;28;20032;-74
2022/05/05 09:18:17;;;;;;;7.28;3.72;;;;;;;;;;5025417;28;20080;-72
2022/05/05 09:20:44;;;;;;;7.32;4.57;;;;;;;;;;5037331;28;20121;-74
2022/05/05 09:23:10;;;;;;;7.68;4.43;;;;;;;;;;5035787;28;20036;-74
2022/05/05 09:25:49;;;;;;;9.55;4.53;;;;;;;;;;5036167;28;20041;-74
2022/05/05 09:28:22;;;;;;;9.82;5.57;;;;;;;;;;5010575;28;20030;-73
2022/05/05 09:30:49;;;;;;;14.77;6.75;;;;;;;;;;5042411;28;20028;-74
2022/05/05 09:33:38;;;;;;;12.73;7.38;;;;;;;;;;5045488;28;20117;-74
2022/05/05 09:36:05;;;;;;;11.80;7.00;;;;;;;;;;5036742;28;20068;-74
2022/05/05 09:38:53;;;;;;;14.15;6.57;;;;;;;;;;5033800;28;20038;-73
2022/05/05 09:41:20;;;;;;;8.73;5.28;;;;;;;;;;5026168;28;20462;-73
2022/05/05 09:43:47;;;;;;;9.50;5.95;;;;;;;;;;5017874;28;20494;-74
2022/05/05 09:46:28;;;;;;;9.57;5.78;;;;;;;;;;5018606;28;20044;-74
2022/05/05 09:49:04;;;;;;;8.10;5.72;;;;;;;;;;5048692;28;20354;-74
2022/05/05 09:51:30;;;;;;;8.95;5.28;;;;;;;;;;5034943;28;20088;-73
2022/05/05 09:59:30;;;;;;;9.60;6.20;;;;;;;;;;5021402;28;20137;-74
2022/05/05 10:02:04;;;;;;;6.68;5.47;;;;;;;;;;5040648;28;20107;-73
2022/05/05 10:04:33;;;;;;;7.30;5.60;;;;;;;;;;5037200;28;20070;-73
2022/05/05 10:07:02;;;;;;;14.15;6.38;;;;;;;;;;5015378;28;20397;-74
2022/05/05 10:09:28;;;;;;;10.60;6.03;;;;;;;;;;5031365;28;20385;-73
2022/05/05 10:11:55;;;;;;;10.38;6.32;;;;;;;;;;5037179;28;20033;-73
2022/05/05 10:14:21;;;;;;;10.50;6.93;;;;;;;;;;5028740;28;20102;-73
2022/05/05 10:16:47;;;;;;;15.52;6.93;;;;;;;;;;5051058;28;20150;-76
2022/05/05 10:19:15;;;;;;;9.40;6.65;;;;;;;;;;5023459;28;20030;-75
2022/05/05 10:21:47;;;;;;;11.50;6.35;;;;;;;;;;5033873;28;20029;-77
2022/05/05 10:24:32;;;;;;;11.48;6.45;;;;;;;;;;5041590;28;20025;-75
2022/05/05 10:27:02;;;;;;;10.65;6.88;;;;;;;;;;5014488;28;20095;-74
2022/05/05 10:29:31;;;;;;;9.50;5.75;;;;;;;;;;5025708;28;20022;-74
2022/05/05 10:32:07;;;;;;;10.00;6.85;;;;;;;;;;5041675;28;20511;-76
2022/05/05 10:34:33;;;;;;;8.50;6.38;;;;;;;;;;5031880;28;20025;-74
2022/05/05 10:37:09;;;;;;;19.42;11.23;;;;;;;;;;5031314;28;20025;-76
2022/05/05 10:39:43;;;;;;;10.48;6.70;;;;;;;;;;5013831;28;20034;-75
2022/05/05 10:42:13;;;;;;;7.65;5.47;;;;;;;;;;5025553;28;20441;-76
2022/05/05 10:44:59;;;;;;;10.57;6.55;;;;;;;;;;5026677;28;20033;-77
2022/05/05 10:47:25;;;;;;;10.43;6.05;;;;;;;;;;5049252;28;20132;-77
2022/05/05 10:49:53;;;;;;;10.20;6.30;;;;;;;;;;5025200;28;20113;-77
2022/05/05 10:52:22;;;;;;;9.88;6.53;;;;;;;;;;5032791;28;20018;-77
2022/05/05 10:54:50;;;;;;;11.27;6.80;;;;;;;;;;5030028;28;20107;-78
2022/05/05 10:57:25;;;;;;;10.73;7.13;;;;;;;;;;5034523;28;20041;-78
2022/05/05 11:00:10;;;;;;;13.93;7.70;;;;;;;;;;5027745;28;20036;-77
2022/05/05 11:02:37;;;;;;;9.05;6.43;;;;;;;;;;4997950;28;20021;-77
2022/05/05 11:05:29;;;;;;;11.98;7.05;;;;;;;;;;5023794;28;20021;-77
2022/05/05 11:08:08;;;;;;;8.75;5.63;;;;;;;;;;5031632;28;20049;-77
2022/05/05 11:10:43;;;;;;;8.13;6.35;;;;;;;;;;5026493;28;20059;-77
2022/05/05 11:13:29;;;;;;;8.80;6.45;;;;;;;;;;5022475;28;20324;-77
2022/05/05 11:21:51;;;;;;;9.82;6.53;;;;;;;;;;4985046;28;20031;-74
2022/05/05 11:24:27;;;;;;;9.73;6.03;;;;;;;;;;5025502;28;20045;-74
2022/05/05 11:26:53;;;;;;;10.23;5.90;;;;;;;;;;5027611;28;20036;-72
2022/05/05 11:29:19;;;;;;;9.43;6.55;;;;;;;;;;5041181;28;20068;-75
2022/05/05 11:31:56;;;;;;;10.75;7.03;;;;;;;;;;5045304;28;20475;-75
2022/05/05 11:34:22;;;;;;;9.40;6.55;;;;;;;;;;5031483;28;20041;-75
2022/05/05 11:36:48;;;;;;;12.40;7.00;;;;;;;;;;5031572;28;20038;-76
2022/05/05 11:39:20;;;;;;;12.55;6.32;;;;;;;;;;5033033;28;20084;-75
2022/05/05 11:41:56;;;;;;;10.75;6.28;;;;;;;;;;5030025;28;20075;-77
2022/05/05 11:44:23;;;;;;;11.05;6.72;;;;;;;;;;5033895;28;20042;-76
2022/05/05 11:46:50;;;;;;;9.70;6.65;;;;;;;;;;5015660;28;20041;-77
2022/05/05 11:49:16;;;;;;;10.18;6.85;;;;;;;;;;5041354;28;20537;-75
2022/05/05 11:51:42;;;;;;;9.70;6.53;;;;;;;;;;5028919;28;20032;-76
2022/05/05 11:54:14;;;;;;;11.13;7.10;;;;;;;;;;5040233;28;20103;-76
2022/05/05 11:56:40;;;;;;;;;;;;;;;;;;5032624;28;20025;-77
2022/05/05 12:02:05;;;;;;;7.72;6.00;;;;;;;;;;5035203;28;20175;-77
2022/05/05 12:04:32;;;;;;;15.82;6.82;;;;;;;;;;5037708;28;20025;-76
2022/05/05 12:06:59;;;;;;;9.98;6.75;;;;;;;;;;5029310;28;20485;-75
2022/05/05 12:09:26;;;;;;;8.48;6.03;;;;;;;;;;5031320;28;20065;-76
2022/05/05 12:11:53;;;;;;;12.82;6.40;;;;;;;;;;5032539;28;20033;-77
2022/05/05 12:14:23;;;;;;;13.02;6.45;;;;;;;;;;5041718;28;20052;-77
2022/05/05 12:16:49;;;;;;;12.60;6.32;;;;;;;;;;5032183;28;20425;-76
2022/05/05 12:19:17;;;;;;;7.95;5.82;;;;;;;;;;5034505;28;20079;-79
2022/05/05 12:21:53;;;;;;;8.70;6.00;;;;;;;;;;5034718;28;20100;-76
2022/05/05 12:24:22;;;;;;;10.82;5.95;;;;;;;;;;5029294;28;20036;-77
2022/05/05 12:26:49;;;;;;;8.45;6.13;;;;;;;;;;5017274;28;20074;-74
2022/05/05 12:29:17;;;;;;;8.10;5.43;;;;;;;;;;5032080;28;20037;-74
2022/05/05 12:31:55;;;;;;;7.97;6.00;;;;;;;;;;5039388;28;20040;-73
2022/05/05 12:34:25;;;;;;;8.52;6.28;;;;;;;;;;5032692;28;20377;-77
2022/05/05 12:37:07;;;;;;;10.98;6.10;;;;;;;;;;5036143;28;20047;-76
2022/05/05 12:39:34;;;;;;;10.35;5.75;;;;;;;;;;5031712;28;20065;-76
2022/05/05 12:42:00;;;;;;;7.75;6.22;;;;;;;;;;5021939;28;20105;-76
2022/05/05 12:44:31;;;;;;;7.18;5.97;;;;;;;;;;5015665;28;20037;-77
2022/05/05 12:47:03;;;;;;;10.18;6.05;;;;;;;;;;5036241;28;20040;-77
2022/05/05 12:49:36;;;;;;;13.95;6.65;;;;;;;;;;5020916;28;20069;-76
2022/05/05 12:52:03;;;;;;;39.50;25.75;;;;;;;;;;5024674;28;20033;-76
2022/05/05 12:59:59;;;;;;;10.40;6.55;;;;;;;;;;5027678;28;20028;-76
2022/05/05 13:02:25;;;;;;;12.05;6.57;;;;;;;;;;5041380;28;20033;-77
2022/05/05 13:04:51;;;;;;;8.35;5.28;;;;;;;;;;5033092;28;20478;-76
2022/05/05 13:07:19;;;;;;;11.02;6.60;;;;;;;;;;5034365;28;20397;-77
2022/05/05 13:09:45;;;;;;;8.55;6.00;;;;;;;;;;5016522;28;20048;-77
2022/05/05 13:12:11;;;;;;;6.75;5.55;;;;;;;;;;5029749;28;20163;-75
2022/05/05 13:14:37;;;;;;;5.93;4.40;;;;;;;;;;5016410;28;20065;-77
2022/05/05 13:17:03;;;;;;;9.00;5.38;;;;;;;;;;5031135;28;20068;-78
2022/05/05 13:19:29;;;;;;;9.52;6.28;;;;;;;;;;5033891;28;20037;-77
2022/05/05 13:22:03;;;;;;;9.55;6.63;;;;;;;;;;5032665;28;20496;-76
2022/05/05 13:24:29;;;;;;;12.80;6.75;;;;;;;;;;5036849;28;20025;-77
2022/05/05 13:26:57;;;;;;;10.23;6.30;;;;;;;;;;5009779;28;20445;-76
2022/05/05 13:29:23;;;;;;;8.48;5.55;;;;;;;;;;5035892;28;20108;-77
2022/05/05 13:31:49;;;;;;;8.32;6.00;;;;;;;;;;5031041;28;20453;-77
2022/05/05 13:34:16;;;;;;;9.25;6.50;;;;;;;;;;5037039;28;20443;-78
2022/05/05 13:36:42;;;;;;;6.68;5.82;;;;;;;;;;5017851;28;20075;-77
2022/05/05 13:39:09;;;;;;;9.00;6.63;;;;;;;;;;5031407;28;20044;-77
2022/05/05 13:41:35;;;;;;;8.55;6.75;;;;;;;;;;5040200;28;20040;-77
2022/05/05 13:44:02;;;;;;;8.65;6.85;;;;;;;;;;5029754;28;20114;-76
2022/05/05 13:46:28;;;;;;;10.77;6.93;;;;;;;;;;5015949;28;20048;-75
2022/05/05 13:48:55;;;;;;;10.70;7.75;;;;;;;;;;5029432;28;20577;-76
2022/05/05 13:51:21;;;;;;;14.70;8.85;;;;;;;;;;5036584;28;20033;-75
2022/05/05 13:53:47;;;;;;;12.73;8.75;;;;;;;;;;5037706;28;20063;-76
2022/05/05 13:56:13;;;;;;;11.77;8.13;;;;;;;;;;5038171;28;20037;-76
2022/05/05 13:58:40;;;;;;;14.88;8.15;;;;;;;;;;5030719;28;20030;-76
2022/05/05 14:01:06;;;;;;;12.38;8.55;;;;;;;;;;5033390;28;20025;-77
2022/05/05 14:03:32;;;;;;;11.38;7.68;;;;;;;;;;5009930;28;20454;-76
2022/05/05 14:05:58;;;;;;;10.63;7.95;;;;;;;;;;5028973;28;20436;-75
2022/05/05 14:13:55;;;;;;;10.10;6.75;;;;;;;;;;5038073;28;20093;-76
2022/05/05 14:16:21;;;;;;;19.00;9.07;;;;;;;;;;5019453;28;20175;-75
2022/05/05 14:18:48;;;;;;;10.95;8.18;;;;;;;;;;5032376;28;20638;-76
2022/05/05 14:21:14;;;;;;;12.75;9.32;;;;;;;;;;5033802;28;20034;-76
2022/05/05 14:23:40;;;;;;;14.82;9.10;;;;;;;;;;5038551;28;20492;-77
2022/05/05 14:26:06;;;;;;;15.35;10.15;;;;;;;;;;5037803;28;20055;-78
2022/05/05 14:28:32;;;;;;;17.55;9.80;;;;;;;;;;5036943;28;20037;-78
2022/05/05 14:30:58;;;;;;;13.13;9.15;;;;;;;;;;5031497;28;20033;-78
2022/05/05 14:33:24;;;;;;;12.65;8.02;;;;;;;;;;5020869;28;20115;-78
2022/05/05 14:35:50;;;;;;;9.77;7.10;;;;;;;;;;5032896;28;20065;-78
2022/05/05 14:38:16;;;;;;;10.07;7.32;;;;;;;;;;5034330;28;20038;-78
2022/05/05 14:40:43;;;;;;;11.65;7.22;;;;;;;;;;5025717;28;20041;-78
2022/05/05 14:43:09;;;;;;;12.98;7.15;;;;;;;;;;5002531;28;20477;-75
2022/05/05 14:45:35;;;;;;;9.05;7.97;;;;;;;;;;5013808;28;20040;-75
2022/05/05 14:48:03;;;;;;;8.60;7.25;;;;;;;;;;5040200;28;20051;-73
2022/05/05 14:50:29;;;;;;;9.65;7.05;;;;;;;;;;5026916;28;20156;-76
2022/05/05 14:52:55;;;;;;;9.15;6.53;;;;;;;;;;5034064;28;20034;-76
2022/05/05 14:55:22;;;;;;;15.65;8.30;;;;;;;;;;5036748;28;20041;-76
2022/05/05 14:57:48;;;;;;;9.68;6.45;;;;;;;;;;5038610;28;20142;-76
2022/05/05 15:00:14;;;;;;;13.30;7.60;;;;;;;;;;5036448;28;20042;-76
2022/05/05 15:02:41;;;;;;;11.45;6.88;;;;;;;;;;5026243;28;20389;-76
2022/05/05 15:05:09;;;;;;;9.13;6.93;;;;;;;;;;5039240;28;20377;-77
2022/05/05 15:07:35;;;;;;;10.32;7.47;;;;;;;;;;5026841;28;20062;-77
2022/05/05 15:10:01;;;;;;;14.40;7.50;;;;;;;;;;5035076;28;20055;-77
2022/05/05 15:12:27;;;;;;;13.13;8.70;;;;;;;;;;5037119;28;20127;-77
2022/05/05 15:14:53;;;;;;;18.35;8.80;;;;;;;;;;5026786;28;20048;-76
2022/05/05 15:17:20;;;;;;;11.38;7.80;;;;;;;;;;5039286;28;20489;-76
2022/05/05 15:19:46;;;;;;;12.82;8.43;;;;;;;;;;5038645;28;20033;-76
2022/05/05 15:22:13;;;;;;;13.18;8.77;;;;;;;;;;5037674;28;20066;-77
2022/05/05 15:24:39;;;;;;;11.95;8.77;;;;;;;;;;5037424;28;20033;-76
2022/05/05 15:27:05;;;;;;;14.52;9.02;;;;;;;;;;5035062;28;20581;-78
2022/05/05 15:29:33;;;;;;;11.43;8.13;;;;;;;;;;5014449;28;20041;-77